Time;durP1;ratioP1;P1;durP2;ratioP2;P2;SDS_P1;SDS_P2;PMS_P1;PMS_P2;Temp;Humidity;BMP_temperature;BMP_pressure;BME280_temperature;BME280_humidity;BME280_pressure;Samples;Min_cycle;Max_cycle;Signal;HPM_P1;HPM_P2
2023/01/01 00:01:29;;;;;;;15.85;2.20;;;;;;;15.92;100.00;100924.81;5207882;28;20021;-87
2023/01/01 00:03:59;;;;;;;6.07;2.08;;;;;;;15.91;100.00;100906.88;5207495;28;20052;-82
2023/01/01 00:06:30;;;;;;;7.55;2.58;;;;;;;15.86;100.00;100902.06;5210185;28;20034;-82
2023/01/01 00:11:50;;;;;;;11.43;2.55;;;;;;;15.75;100.00;100899.91;5209168;28;20022;-83
2023/01/01 00:14:20;;;;;;;8.32;3.17;;;;;;;15.84;100.00;100908.72;5211920;28;20083;-83
2023/01/01 00:16:54;;;;;;;10.02;2.75;;;;;;;15.83;100.00;100898.94;5221302;28;20405;-83
2023/01/01 00:19:25;;;;;;;15.32;2.85;;;;;;;15.78;100.00;100903.06;5214274;28;20112;-82
2023/01/01 00:21:55;;;;;;;12.48;2.70;;;;;;;15.70;100.00;100911.31;5213086;28;20100;-82
2023/01/01 00:24:26;;;;;;;6.45;2.30;;;;;;;15.67;100.00;100911.75;5214117;28;20033;-82
2023/01/01 00:26:56;;;;;;;14.98;2.63;;;;;;;15.60;100.00;100907.28;5212986;28;20040;-82
2023/01/01 00:29:27;;;;;;;18.38;2.55;;;;;;;15.48;100.00;100917.81;5213102;28;20025;-83
2023/01/01 00:31:57;;;;;;;9.07;1.92;;;;;;;15.39;100.00;100902.75;5213035;28;20061;-82
2023/01/01 00:34:28;;;;;;;11.63;2.70;;;;;;;15.33;100.00;100915.19;5213706;28;20088;-82
2023/01/01 00:36:58;;;;;;;7.68;2.22;;;;;;;15.26;100.00;100925.09;5215187;28;20029;-82
2023/01/01 00:39:29;;;;;;;8.75;2.25;;;;;;;15.32;100.00;100929.75;5214438;28;20557;-82
2023/01/01 00:41:59;;;;;;;11.70;2.92;;;;;;;15.31;100.00;100925.34;5214832;28;20022;-82
2023/01/01 00:44:30;;;;;;;10.43;2.83;;;;;;;15.28;100.00;100932.00;5213174;28;20052;-83
2023/01/01 00:47:00;;;;;;;10.65;2.58;;;;;;;15.24;100.00;100932.59;5212640;28;20502;-82
2023/01/01 00:49:31;;;;;;;13.88;2.22;;;;;;;15.20;100.00;100929.44;5214307;28;20040;-82
2023/01/01 00:52:01;;;;;;;11.63;2.72;;;;;;;15.17;100.00;100910.91;5213775;28;20025;-82
2023/01/01 00:54:32;;;;;;;11.07;2.95;;;;;;;15.20;100.00;100920.47;5213756;28;20413;-82
2023/01/01 00:57:02;;;;;;;12.55;3.03;;;;;;;15.15;100.00;100921.06;5215221;28;20457;-83
2023/01/01 00:59:32;;;;;;;9.40;2.22;;;;;;;15.11;100.00;100922.50;5212365;28;20035;-82
2023/01/01 01:02:03;;;;;;;7.22;2.17;;;;;;;15.11;100.00;100924.34;5209166;28;20397;-82
2023/01/01 01:04:33;;;;;;;9.20;2.42;;;;;;;15.09;100.00;100924.56;5213601;28;20025;-82
2023/01/01 01:07:04;;;;;;;11.07;2.30;;;;;;;15.07;100.00;100921.22;5218356;28;20025;-82
2023/01/01 01:09:34;;;;;;;11.43;2.40;;;;;;;15.07;100.00;100921.22;5217278;28;20052;-82
2023/01/01 01:12:05;;;;;;;10.07;2.72;;;;;;;15.04;100.00;100913.50;5215840;28;20037;-82
2023/01/01 01:14:35;;;;;;;11.75;2.05;;;;;;;15.02;100.00;100911.00;5216926;28;20048;-83
2023/01/01 01:17:06;;;;;;;9.90;2.15;;;;;;;15.03;100.00;100920.75;5223847;28;20455;-83
2023/01/01 01:19:36;;;;;;;8.80;2.58;;;;;;;14.98;100.00;100927.78;5215775;28;20037;-82
2023/01/01 01:22:06;;;;;;;9.93;2.13;;;;;;;14.99;100.00;100924.03;5216133;28;20037;-83
2023/01/01 01:24:37;;;;;;;9.40;3.25;;;;;;;14.94;100.00;100910.28;5215027;28;20455;-83
2023/01/01 01:27:07;;;;;;;8.48;2.35;;;;;;;15.01;100.00;100920.13;5215229;28;20065;-83
2023/01/01 01:29:38;;;;;;;10.05;2.60;;;;;;;14.97;100.00;100912.59;5214854;28;20519;-83
2023/01/01 01:32:10;;;;;;;5.93;2.33;;;;;;;14.96;100.00;100913.59;5215973;28;20025;-83
2023/01/01 01:34:41;;;;;;;13.43;2.63;;;;;;;14.91;100.00;100934.97;5202186;28;20026;-83
2023/01/01 01:37:12;;;;;;;14.15;2.78;;;;;;;14.95;100.00;100933.56;5214224;28;20032;-83
2023/01/01 01:39:42;;;;;;;10.05;1.95;;;;;;;14.92;100.00;100918.59;5213734;28;20055;-83
2023/01/01 01:42:17;;;;;;;10.75;2.22;;;;;;;14.96;100.00;100922.56;5211574;28;20103;-83
2023/01/01 01:44:53;;;;;;;10.98;1.98;;;;;;;15.01;100.00;100919.31;5213395;28;20040;-83
2023/01/01 01:47:30;;;;;;;7.82;2.10;;;;;;;15.03;100.00;100923.47;5212991;28;20387;-83
2023/01/01 01:50:28;;;;;;;11.68;2.33;;;;;;;14.98;100.00;100944.00;5212358;28;20024;-82
2023/01/01 01:53:17;;;;;;;9.15;2.03;;;;;;;14.95;100.00;100933.56;5206899;28;20033;-83
2023/01/01 01:56:01;;;;;;;7.05;2.05;;;;;;;14.88;100.00;100970.47;5206048;28;20034;-82
2023/01/01 01:58:33;;;;;;;10.75;2.22;;;;;;;14.88;100.00;100955.09;5207191;28;20269;-82
2023/01/01 02:01:04;;;;;;;11.00;2.08;;;;;;;14.83;100.00;100970.22;5205328;28;20108;-82
2023/01/01 02:03:48;;;;;;;11.57;1.95;;;;;;;14.74;100.00;100973.03;5206392;28;20033;-83
2023/01/01 02:06:20;;;;;;;11.48;2.30;;;;;;;14.71;100.00;100976.13;5208661;28;20028;-81
2023/01/01 02:08:51;;;;;;;7.65;2.53;;;;;;;14.67;100.00;100966.72;5207677;28;20490;-82
2023/01/01 02:11:21;;;;;;;12.63;2.50;;;;;;;14.61;100.00;100972.88;5207735;28;20104;-82
2023/01/01 02:13:54;;;;;;;8.63;2.13;;;;;;;14.51;100.00;100964.25;5210210;28;20057;-82
2023/01/01 02:16:36;;;;;;;7.10;2.22;;;;;;;14.57;100.00;100968.06;5217911;28;20079;-82
2023/01/01 02:19:25;;;;;;;7.25;2.50;;;;;;;14.54;100.00;100981.91;5197150;28;20029;-82
2023/01/01 02:22:19;;;;;;;5.10;2.00;;;;;;;14.50;100.00;100967.94;5210282;28;20033;-82
2023/01/01 02:25:22;;;;;;;10.25;2.45;;;;;;;14.52;100.00;100971.31;5210834;28;20037;-82
2023/01/01 02:28:30;;;;;;;9.90;3.03;;;;;;;14.52;100.00;100974.03;5210254;28;20032;-82
2023/01/01 02:31:03;;;;;;;5.95;1.85;;;;;;;14.47;100.00;100979.13;5210613;28;20087;-81
2023/01/01 02:33:34;;;;;;;11.18;2.03;;;;;;;14.52;100.00;100978.59;5210603;28;20026;-81
2023/01/01 02:36:07;;;;;;;8.40;2.05;;;;;;;14.54;100.00;100969.25;5209397;28;20021;-80
2023/01/01 02:38:45;;;;;;;5.82;2.05;;;;;;;14.58;100.00;100986.75;5211298;28;20116;-81
2023/01/01 02:41:25;;;;;;;4.63;1.63;;;;;;;14.71;100.00;100976.13;5210497;28;20014;-81
2023/01/01 02:43:55;;;;;;;9.10;2.47;;;;;;;14.71;100.00;100995.03;5210013;28;20482;-81
2023/01/01 02:46:31;;;;;;;6.57;2.15;;;;;;;14.70;100.00;100987.91;5209906;28;20276;-81
2023/01/01 02:49:02;;;;;;;5.88;1.58;;;;;;;14.72;100.00;101006.66;5209640;28;20449;-81
2023/01/01 02:51:42;;;;;;;5.82;1.73;;;;;;;14.71;100.00;100996.88;5210549;28;20052;-79
2023/01/01 02:54:34;;;;;;;6.90;2.10;;;;;;;14.66;100.00;101000.16;5208784;28;20080;-80
2023/01/01 02:57:32;;;;;;;11.82;2.10;;;;;;;14.60;100.00;101022.47;5209885;28;20027;-81
2023/01/01 03:00:30;;;;;;;13.25;2.40;;;;;;;14.56;100.00;101004.16;5209574;28;20022;-81
2023/01/01 03:03:04;;;;;;;7.57;1.83;;;;;;;14.59;100.00;101015.41;5197043;28;20497;-81
2023/01/01 03:06:22;;;;;;;8.38;2.55;;;;;;;14.58;100.00;101010.22;5208775;28;20035;-81
2023/01/01 03:09:03;;;;;;;7.63;2.00;;;;;;;14.48;100.00;100995.16;5210621;28;20509;-81
2023/01/01 03:11:49;;;;;;;7.68;2.13;;;;;;;14.44;100.00;100999.22;5209457;28;20017;-80
2023/01/01 03:14:19;;;;;;;;;;;;;;;14.48;100.00;100991.63;5196555;28;20025;-80
2023/01/01 03:16:59;;;;;;;9.68;1.52;;;;;;;14.44;100.00;101001.91;5217912;28;19932;-80
2023/01/01 03:19:36;;;;;;;7.45;2.40;;;;;;;14.43;100.00;101011.03;5208171;28;20025;-80
2023/01/01 03:22:11;;;;;;;7.80;2.22;;;;;;;14.43;100.00;101015.59;5208543;28;20026;-80
2023/01/01 03:24:51;;;;;;;7.72;1.98;;;;;;;14.39;100.00;101020.53;5210501;28;20108;-81
2023/01/01 03:27:36;;;;;;;5.90;1.60;;;;;;;14.37;100.00;101010.97;5210136;28;20032;-81
2023/01/01 03:30:11;;;;;;;4.50;2.20;;;;;;;14.40;100.00;101019.50;5209252;28;20069;-80
2023/01/01 03:33:02;;;;;;;;;;;;;;;14.39;100.00;101017.00;5210343;28;20108;-80
2023/01/01 03:35:45;;;;;;;9.27;2.05;;;;;;;14.36;100.00;101010.13;5198108;28;19905;-80
2023/01/01 03:38:47;;;;;;;6.68;1.85;;;;;;;14.32;100.00;101040.38;5208560;28;20048;-80
2023/01/01 03:41:29;;;;;;;8.48;2.38;;;;;;;14.36;100.00;101038.97;5207780;28;20099;-79
2023/01/01 03:44:12;;;;;;;8.85;2.10;;;;;;;14.31;100.00;101022.47;5210022;28;20025;-80
2023/01/01 03:46:43;;;;;;;11.60;2.10;;;;;;;14.27;100.00;101034.69;5209980;28;20029;-79
2023/01/01 03:49:14;;;;;;;4.82;1.70;;;;;;;14.20;100.00;101016.53;5208116;28;20037;-80
2023/01/01 03:52:17;;;;;;;17.42;2.42;;;;;;;14.19;100.00;101017.53;5209431;28;20053;-80
2023/01/01 03:54:51;;;;;;;6.78;1.90;;;;;;;14.10;100.00;101025.91;5209508;28;20028;-80
2023/01/01 03:57:32;;;;;;;6.10;1.88;;;;;;;14.08;100.00;101031.50;5209220;28;20034;-80
2023/01/01 04:00:13;;;;;;;8.00;2.00;;;;;;;13.98;100.00;101039.03;5207904;28;20044;-80
2023/01/01 04:02:52;;;;;;;6.35;2.05;;;;;;;13.92;100.00;101018.19;5208496;28;20508;-80
2023/01/01 04:05:24;;;;;;;15.32;2.75;;;;;;;13.95;100.00;101023.19;5209144;28;20308;-80
2023/01/01 04:07:55;;;;;;;9.30;2.20;;;;;;;14.01;100.00;101054.84;5208213;28;20056;-81
2023/01/01 04:10:30;;;;;;;8.00;2.35;;;;;;;13.92;100.00;101053.25;5207813;28;20025;-80
2023/01/01 04:13:03;;;;;;;5.93;2.20;;;;;;;13.91;100.00;101049.72;5209159;28;20017;-79
2023/01/01 04:15:37;;;;;;;9.60;2.28;;;;;;;13.89;100.00;101035.56;5207415;28;20096;-80
2023/01/01 04:18:08;;;;;;;11.45;2.35;;;;;;;13.89;100.00;101054.44;5201719;28;20044;-80
2023/01/01 04:20:39;;;;;;;8.73;2.45;;;;;;;13.88;100.00;101054.63;5208732;28;20433;-81
2023/01/01 04:23:09;;;;;;;8.35;2.10;;;;;;;13.85;100.00;101046.91;5208096;28;20048;-79
2023/01/01 04:25:40;;;;;;;9.25;1.75;;;;;;;13.88;100.00;101039.28;5209040;28;20509;-80
2023/01/01 04:28:10;;;;;;;9.38;2.03;;;;;;;13.82;100.00;101033.78;5208383;28;20030;-81
2023/01/01 04:30:41;;;;;;;6.40;2.35;;;;;;;13.81;100.00;101053.69;5208024;28;20228;-80
2023/01/01 04:33:11;;;;;;;6.88;1.90;;;;;;;13.79;100.00;101047.63;5204555;28;20022;-81
2023/01/01 04:35:41;;;;;;;8.93;2.05;;;;;;;13.77;100.00;101041.59;5200196;28;20382;-79
2023/01/01 04:38:13;;;;;;;12.25;2.28;;;;;;;13.79;100.00;101044.94;5209179;28;20025;-80
2023/01/01 04:40:43;;;;;;;7.88;2.10;;;;;;;13.80;100.00;101055.53;5208534;28;20033;-80
2023/01/01 04:43:13;;;;;;;6.65;2.00;;;;;;;13.80;100.00;101079.78;5207305;28;20029;-80
2023/01/01 04:45:54;;;;;;;15.10;2.35;;;;;;;13.77;100.00;101068.56;5207652;28;20038;-79
2023/01/01 04:48:25;;;;;;;7.43;1.90;;;;;;;13.76;100.00;101091.16;5208237;28;20143;-80
2023/01/01 04:51:04;;;;;;;7.32;2.20;;;;;;;13.74;100.00;101089.44;5208557;28;20029;-79
2023/01/01 04:53:34;;;;;;;5.53;2.20;;;;;;;13.73;100.00;101095.03;5208921;28;20111;-79
2023/01/01 04:56:11;;;;;;;10.60;2.33;;;;;;;13.74;100.00;101081.38;5209076;28;20482;-80
2023/01/01 04:58:42;;;;;;;5.07;1.73;;;;;;;13.78;100.00;101075.63;5209168;28;20032;-80
2023/01/01 05:01:16;;;;;;;10.38;2.03;;;;;;;13.84;100.00;101085.69;5211608;28;20032;-79
2023/01/01 05:03:46;;;;;;;8.60;2.25;;;;;;;13.81;100.00;101097.69;5212636;28;20292;-80
2023/01/01 05:06:17;;;;;;;5.78;1.77;;;;;;;13.84;100.00;101089.22;5211499;28;20029;-80
2023/01/01 05:08:51;;;;;;;7.10;2.20;;;;;;;13.80;100.00;101100.53;5212667;28;20029;-80
2023/01/01 05:11:24;;;;;;;10.98;2.55;;;;;;;13.78;100.00;101114.22;5211920;28;20021;-79
2023/01/01 05:13:58;;;;;;;8.50;1.92;;;;;;;13.75;100.00;101117.25;5212051;28;20546;-79
2023/01/01 05:16:31;;;;;;;7.88;2.10;;;;;;;13.76;100.00;101121.66;5219164;28;20029;-80
2023/01/01 05:19:02;;;;;;;7.05;2.10;;;;;;;13.73;100.00;101106.66;5211205;28;20028;-80
2023/01/01 05:21:38;;;;;;;13.50;2.75;;;;;;;13.77;100.00;101117.09;5211761;28;20540;-80
2023/01/01 05:24:09;;;;;;;10.32;2.38;;;;;;;13.79;100.00;101132.06;5213019;28;20025;-80
2023/01/01 05:26:41;;;;;;;7.45;2.53;;;;;;;13.79;100.00;101123.97;5211774;28;20045;-80
2023/01/01 05:29:12;;;;;;;9.70;2.78;;;;;;;13.84;100.00;101126.13;5212080;28;20113;-80
2023/01/01 05:31:43;;;;;;;9.40;1.85;;;;;;;13.85;100.00;101127.78;5210444;28;20028;-79
2023/01/01 05:34:13;;;;;;;6.65;1.92;;;;;;;13.86;100.00;101151.06;5211780;28;20033;-80
2023/01/01 05:36:44;;;;;;;12.98;2.88;;;;;;;13.85;100.00;101152.06;5212154;28;20029;-80
2023/01/01 05:39:15;;;;;;;9.35;2.30;;;;;;;13.86;100.00;101134.91;5211790;28;20030;-80
2023/01/01 05:41:45;;;;;;;9.43;2.17;;;;;;;13.85;100.00;101143.97;5210918;28;20116;-79
2023/01/01 05:44:18;;;;;;;8.60;2.25;;;;;;;13.86;100.00;101154.59;5209960;28;20032;-79
2023/01/01 05:46:48;;;;;;;15.80;2.60;;;;;;;13.88;100.00;101152.56;5211200;28;20104;-80
2023/01/01 05:49:18;;;;;;;9.93;2.28;;;;;;;13.89;100.00;101154.22;5210125;28;20064;-80
2023/01/01 05:51:49;;;;;;;8.82;2.25;;;;;;;13.95;100.00;101148.09;5210433;28;20018;-80
2023/01/01 05:54:19;;;;;;;9.85;2.30;;;;;;;13.92;100.00;101156.56;5209235;28;20458;-81
2023/01/01 05:56:50;;;;;;;9.57;2.10;;;;;;;13.91;100.00;101151.38;5210487;28;20017;-82
2023/01/01 05:59:20;;;;;;;15.13;3.00;;;;;;;13.89;100.00;101150.69;5209053;28;20081;-80
2023/01/01 06:01:51;;;;;;;8.63;2.28;;;;;;;13.89;100.00;101161.47;5210376;28;20108;-81
2023/01/01 06:04:21;;;;;;;11.98;2.50;;;;;;;13.86;100.00;101156.47;5210306;28;20025;-81
2023/01/01 06:06:51;;;;;;;7.75;2.95;;;;;;;13.85;100.00;101150.22;5208358;28;20445;-82
2023/01/01 06:09:22;;;;;;;10.95;2.88;;;;;;;13.88;100.00;101170.59;5208076;28;20461;-81
2023/01/01 06:11:53;;;;;;;19.40;8.75;;;;;;;13.88;100.00;101184.09;5217176;28;20068;-81
2023/01/01 06:14:27;;;;;;;10.20;3.30;;;;;;;13.93;100.00;101190.63;5209984;28;20052;-83
2023/01/01 06:16:58;;;;;;;9.68;5.03;;;;;;;13.93;100.00;101203.25;5221218;28;20017;-83
2023/01/01 06:19:28;;;;;;;11.63;2.65;;;;;;;13.89;100.00;101191.16;5207082;28;20029;-80
2023/01/01 06:21:59;;;;;;;7.05;2.90;;;;;;;13.93;100.00;101198.69;5204977;28;20509;-80
2023/01/01 06:24:29;;;;;;;7.75;2.40;;;;;;;13.90;100.00;101215.22;5206125;28;20029;-80
2023/01/01 06:26:59;;;;;;;15.10;5.15;;;;;;;13.89;100.00;101235.13;5205653;28;20034;-80
2023/01/01 06:29:30;;;;;;;21.75;8.02;;;;;;;13.82;100.00;101241.44;5205374;28;20386;-82
2023/01/01 06:32:00;;;;;;;54.40;21.15;;;;;;;13.80;100.00;101256.94;5222845;28;20458;-81
2023/01/01 06:34:31;;;;;;;131.00;61.10;;;;;;;13.73;100.00;101270.28;5205600;28;20037;-81
2023/01/01 06:37:01;;;;;;;8.93;4.03;;;;;;;13.36;100.00;101249.44;5217378;28;20049;-81
2023/01/01 06:39:32;;;;;;;11.90;4.07;;;;;;;12.93;100.00;101257.75;5210590;28;20026;-80
2023/01/01 06:42:02;;;;;;;13.55;3.40;;;;;;;12.54;100.00;101254.94;5211204;28;20525;-81
2023/01/01 06:44:33;;;;;;;9.70;3.03;;;;;;;12.26;100.00;101251.75;5210353;28;20111;-81
2023/01/01 06:47:03;;;;;;;13.88;3.55;;;;;;;12.09;100.00;101263.50;5204688;28;20490;-80
2023/01/01 06:49:34;;;;;;;14.23;3.47;;;;;;;12.10;100.00;101274.09;5205609;28;20029;-80
2023/01/01 06:52:04;;;;;;;9.52;3.33;;;;;;;12.06;100.00;101272.75;5205416;28;20086;-80
2023/01/01 06:54:34;;;;;;;15.27;3.85;;;;;;;12.07;100.00;101268.22;5204185;28;20029;-80
2023/01/01 06:57:05;;;;;;;8.95;2.70;;;;;;;12.08;100.00;101270.72;5206007;28;20056;-80
2023/01/01 06:59:35;;;;;;;11.77;2.97;;;;;;;12.07;100.00;101269.06;5205710;28;20025;-80
2023/01/01 07:02:10;;;;;;;11.13;3.20;;;;;;;12.10;100.00;101282.19;5199588;28;20033;-79
2023/01/01 07:04:41;;;;;;;22.25;9.07;;;;;;;12.11;100.00;101291.09;5196303;28;20025;-80
2023/01/01 07:07:11;;;;;;;15.63;3.22;;;;;;;12.10;100.00;101286.72;5203924;28;20044;-80
2023/01/01 07:09:42;;;;;;;9.75;2.92;;;;;;;12.09;100.00;101291.22;5205308;28;20105;-79
2023/01/01 07:12:12;;;;;;;9.52;2.75;;;;;;;12.09;100.00;101295.78;5204956;28;20144;-80
2023/01/01 07:14:42;;;;;;;10.55;3.20;;;;;;;12.04;100.00;101284.66;5205282;28;20075;-81
2023/01/01 07:17:13;;;;;;;17.17;6.35;;;;;;;12.04;100.00;101293.56;5211795;28;20067;-80
2023/01/01 07:19:43;;;;;;;21.50;7.13;;;;;;;12.08;100.00;101286.88;5203941;28;20129;-81
2023/01/01 07:22:14;;;;;;;19.00;7.90;;;;;;;12.25;100.00;101303.03;5203298;28;20104;-81
2023/01/01 07:24:46;;;;;;;19.88;3.67;;;;;;;12.40;100.00;101302.22;5205272;28;20101;-80
2023/01/01 07:27:17;;;;;;;9.15;3.05;;;;;;;12.68;100.00;101316.16;5205529;28;20100;-81
2023/01/01 07:29:47;;;;;;;17.92;3.30;;;;;;;12.73;100.00;101309.44;5204337;28;20088;-81
2023/01/01 07:32:18;;;;;;;18.67;3.33;;;;;;;12.86;100.00;101307.09;5205094;28;20516;-82
2023/01/01 07:34:48;;;;;;;14.30;3.45;;;;;;;12.91;100.00;101304.72;5204374;28;20033;-81
2023/01/01 07:37:19;;;;;;;11.77;3.60;;;;;;;13.04;100.00;101313.09;5205561;28;20021;-81
2023/01/01 07:39:50;;;;;;;11.20;2.90;;;;;;;13.08;100.00;101310.91;5204470;28;20057;-82
2023/01/01 07:42:21;;;;;;;10.20;2.92;;;;;;;13.07;100.00;101310.09;5203894;28;20049;-81
2023/01/01 07:44:51;;;;;;;14.13;3.00;;;;;;;13.09;100.00;101320.69;5204530;28;20036;-81
2023/01/01 07:47:24;;;;;;;12.02;3.28;;;;;;;13.12;100.00;101323.03;5205308;28;20025;-81
2023/01/01 07:49:55;;;;;;;12.60;3.40;;;;;;;13.10;100.00;101334.00;5205477;28;20340;-81
2023/01/01 07:52:25;;;;;;;9.55;3.17;;;;;;;13.08;100.00;101344.09;5205421;28;20021;-81
2023/01/01 07:54:56;;;;;;;18.50;3.72;;;;;;;13.03;100.00;101351.84;5205642;28;20044;-81
2023/01/01 07:57:26;;;;;;;9.50;2.75;;;;;;;13.04;100.00;101361.59;5206440;28;20021;-82
2023/01/01 07:59:57;;;;;;;13.65;3.15;;;;;;;13.04;100.00;101358.91;5206800;28;20018;-82
2023/01/01 08:02:27;;;;;;;10.88;2.97;;;;;;;13.01;100.00;101356.56;5206207;28;20095;-81
2023/01/01 08:04:57;;;;;;;14.73;3.25;;;;;;;12.99;100.00;101360.41;5207142;28;20382;-83
2023/01/01 08:07:28;;;;;;;9.40;3.22;;;;;;;12.92;100.00;101357.56;5206179;28;20486;-83
2023/01/01 08:09:58;;;;;;;16.42;3.53;;;;;;;12.90;100.00;101351.50;5206425;28;20514;-81
2023/01/01 08:12:29;;;;;;;15.93;3.33;;;;;;;12.90;100.00;101362.25;5204814;28;20033;-81
2023/01/01 08:14:59;;;;;;;11.88;3.40;;;;;;;12.90;100.00;101362.25;5205154;28;20072;-79
2023/01/01 08:17:30;;;;;;;11.18;3.20;;;;;;;12.86;100.00;101377.94;5204845;28;20032;-81
2023/01/01 08:20:00;;;;;;;13.73;3.95;;;;;;;12.87;100.00;101378.78;5204943;28;20052;-81
2023/01/01 08:22:31;;;;;;;13.90;3.70;;;;;;;12.85;100.00;101395.13;5204321;28;20390;-81
2023/01/01 08:25:01;;;;;;;10.68;3.35;;;;;;;12.84;100.00;101397.94;5205671;28;20497;-81
2023/01/01 08:27:32;;;;;;;10.77;2.95;;;;;;;12.81;100.00;101401.84;5204707;28;20030;-80
2023/01/01 08:30:03;;;;;;;14.00;3.92;;;;;;;12.81;100.00;101387.53;5204538;28;20021;-80
2023/01/01 08:32:33;;;;;;;12.05;2.95;;;;;;;12.76;100.00;101396.09;5204815;28;20075;-81
2023/01/01 08:35:04;;;;;;;8.25;2.83;;;;;;;12.73;100.00;101392.91;5193004;28;20512;-81
2023/01/01 08:37:35;;;;;;;12.48;3.50;;;;;;;12.76;100.00;101393.41;5206722;28;20029;-79
2023/01/01 08:40:06;;;;;;;12.43;4.15;;;;;;;12.73;100.00;101422.50;5206299;28;20029;-80
2023/01/01 08:42:36;;;;;;;13.60;3.20;;;;;;;12.73;100.00;101419.81;5208095;28;20461;-80
2023/01/01 08:45:07;;;;;;;18.05;2.90;;;;;;;12.75;100.00;101410.59;5208489;28;20025;-81
2023/01/01 08:47:38;;;;;;;9.52;2.75;;;;;;;12.77;100.00;101416.63;5208177;28;20143;-80
2023/01/01 08:50:09;;;;;;;18.60;3.75;;;;;;;12.79;100.00;101424.53;5208334;28;20490;-80
2023/01/01 08:52:39;;;;;;;14.25;3.13;;;;;;;12.76;100.00;101424.88;5207061;28;20033;-81
2023/01/01 08:55:09;;;;;;;12.68;3.08;;;;;;;12.75;100.00;101424.06;5207351;28;20445;-81
2023/01/01 08:57:40;;;;;;;12.68;2.78;;;;;;;12.73;100.00;101420.66;5207061;28;20052;-81
2023/01/01 09:00:12;;;;;;;7.22;3.47;;;;;;;12.73;100.00;101425.22;5207891;28;20029;-81
2023/01/01 09:02:43;;;;;;;12.45;3.42;;;;;;;12.74;100.00;101424.19;5207677;28;20176;-81
2023/01/01 09:05:13;;;;;;;12.70;3.00;;;;;;;12.69;100.00;101432.75;5207039;28;20498;-80
2023/01/01 09:07:44;;;;;;;17.15;3.38;;;;;;;12.73;100.00;101435.97;5206583;28;20025;-81
2023/01/01 09:10:14;;;;;;;17.15;3.70;;;;;;;12.76;100.00;101431.13;5207413;28;20091;-81
2023/01/01 09:12:45;;;;;;;18.00;3.53;;;;;;;12.78;100.00;101442.53;5207756;28;20044;-81
2023/01/01 09:15:16;;;;;;;10.05;2.72;;;;;;;12.85;100.00;101450.78;5208182;28;20056;-79
2023/01/01 09:17:47;;;;;;;7.18;2.75;;;;;;;12.95;100.00;101467.63;5207348;28;20036;-80
2023/01/01 09:20:18;;;;;;;7.80;2.75;;;;;;;13.01;100.00;101467.00;5206953;28;20052;-80
2023/01/01 09:22:48;;;;;;;15.75;3.30;;;;;;;13.06;100.00;101470.03;5206137;28;20021;-80
2023/01/01 09:25:19;;;;;;;13.02;2.95;;;;;;;13.07;100.00;101462.78;5206844;28;20021;-80
2023/01/01 09:27:58;;;;;;;16.33;3.42;;;;;;;13.03;100.00;101454.19;5207216;28;20025;-79
2023/01/01 09:30:29;;;;;;;12.70;3.10;;;;;;;13.07;100.00;101460.09;5202868;28;20075;-80
2023/01/01 09:33:00;;;;;;;12.85;2.88;;;;;;;13.13;100.00;101468.31;5206561;28;20390;-80
2023/01/01 09:35:31;;;;;;;11.25;3.45;;;;;;;13.08;100.00;101462.59;5206280;28;20022;-81
2023/01/01 09:38:01;;;;;;;12.95;2.67;;;;;;;13.13;100.00;101476.41;5205941;28;20508;-81
2023/01/01 09:40:50;;;;;;;10.90;3.10;;;;;;;13.15;100.00;101470.84;5207278;28;20117;-81
2023/01/01 09:43:58;;;;;;;12.77;3.03;;;;;;;13.17;100.00;101472.38;5207740;28;20430;-80
2023/01/01 09:46:29;;;;;;;11.77;2.85;;;;;;;13.15;100.00;101463.63;5207339;28;20043;-80
2023/01/01 09:49:04;;;;;;;14.85;3.95;;;;;;;13.22;100.00;101471.91;5206472;28;20021;-80
2023/01/01 09:51:38;;;;;;;18.27;3.38;;;;;;;13.18;100.00;101463.28;5207396;28;20017;-79
2023/01/01 09:54:19;;;;;;;8.75;2.97;;;;;;;13.21;100.00;101464.81;5206968;28;20037;-79
2023/01/01 09:56:56;;;;;;;12.85;3.05;;;;;;;13.27;100.00;101466.84;5205544;28;20073;-80
2023/01/01 09:59:27;;;;;;;7.82;2.95;;;;;;;13.26;100.00;101475.13;5208084;28;20152;-80
2023/01/01 10:02:17;;;;;;;16.77;3.60;;;;;;;13.26;100.00;101467.03;5209483;28;20037;-80
2023/01/01 10:05:20;;;;;;;12.00;3.17;;;;;;;13.32;100.00;101475.28;5210158;28;20076;-80
2023/01/01 10:08:16;;;;;;;14.27;3.22;;;;;;;13.37;100.00;101480.16;5208044;28;20071;-81
2023/01/01 10:10:56;;;;;;;;;;;;;;;13.37;100.00;101477.47;5209880;28;20510;-81
2023/01/01 10:13:27;;;;;;;17.75;2.95;;;;;;;13.46;100.00;101480.00;5209470;28;19909;-80
2023/01/01 10:16:13;;;;;;;12.27;3.15;;;;;;;13.46;100.00;101471.06;5210269;28;20032;-80
2023/01/01 10:18:48;;;;;;;10.48;2.83;;;;;;;13.47;100.00;101473.56;5209435;28;20033;-79
2023/01/01 10:21:25;;;;;;;8.90;2.93;;;;;;;13.50;100.00;101490.41;5210005;28;20088;-81
2023/01/01 10:24:03;;;;;;;14.32;3.03;;;;;;;13.49;100.00;101489.56;5209051;28;20021;-81
2023/01/01 10:26:36;;;;;;;22.42;3.78;;;;;;;13.54;100.00;101486.38;5209752;28;20089;-80
2023/01/01 10:29:21;;;;;;;15.07;3.42;;;;;;;13.55;100.00;101485.34;5208187;28;20083;-80
2023/01/01 10:31:54;;;;;;;13.23;3.17;;;;;;;13.57;100.00;101478.78;5207889;28;20021;-80
2023/01/01 10:34:27;;;;;;;13.48;3.03;;;;;;;13.67;100.00;101478.63;5208432;28;20103;-80
2023/01/01 10:36:59;;;;;;;10.82;3.13;;;;;;;13.66;100.00;101483.16;5209742;28;20488;-79
2023/01/01 10:39:30;;;;;;;15.10;4.25;;;;;;;13.67;100.00;101476.75;5209128;28;20039;-79
2023/01/01 10:42:02;;;;;;;14.90;2.60;;;;;;;13.72;100.00;101479.78;5208696;28;20021;-80
2023/01/01 10:44:33;;;;;;;16.33;3.28;;;;;;;13.87;100.00;101476.38;5209231;28;20100;-81
2023/01/01 10:47:22;;;;;;;11.13;2.80;;;;;;;13.99;100.00;101477.69;5208969;28;20032;-81
2023/01/01 10:50:06;;;;;;;15.05;2.83;;;;;;;14.02;100.00;101493.53;5207487;28;20032;-79
2023/01/01 10:52:39;;;;;;;18.40;2.72;;;;;;;14.10;100.00;101506.13;5209267;28;20045;-79
2023/01/01 10:55:21;;;;;;;16.95;3.00;;;;;;;14.10;100.00;101508.84;5212170;28;20032;-80
2023/01/01 10:57:53;;;;;;;17.05;2.80;;;;;;;14.13;100.00;101503.09;5208132;28;20044;-78
2023/01/01 11:00:26;;;;;;;16.52;3.33;;;;;;;14.23;100.00;101515.38;5207080;28;20108;-80
2023/01/01 11:03:19;;;;;;;14.13;2.70;;;;;;;14.23;100.00;101520.78;5207075;28;20625;-82
2023/01/01 11:06:15;;;;;;;16.50;3.05;;;;;;;14.38;100.00;101523.59;5210747;28;20029;-82
2023/01/01 11:08:51;;;;;;;16.67;3.05;;;;;;;14.50;100.00;101530.31;5208463;28;20486;-83
2023/01/01 11:11:27;;;;;;;15.48;3.47;;;;;;;14.42;100.00;101516.84;5209464;28;20505;-82
2023/01/01 11:14:03;;;;;;;8.43;2.67;;;;;;;14.36;100.00;101517.53;5208805;28;20028;-82
2023/01/01 11:16:38;;;;;;;14.70;2.80;;;;;;;14.30;100.00;101491.22;5209067;28;20505;-82
2023/01/01 11:19:21;;;;;;;14.77;2.80;;;;;;;14.14;100.00;101489.44;5197057;28;20025;-82
2023/01/01 11:21:56;;;;;;;13.95;2.90;;;;;;;14.14;100.00;101496.69;5205651;28;20429;-83
2023/01/01 11:24:28;;;;;;;;;;;;;;;14.23;100.00;101496.50;5210323;28;20610;-81
2023/01/01 11:27:18;;;;;;;14.57;3.00;;;;;;;14.32;100.00;101499.16;5208694;28;19940;-82
2023/01/01 11:29:53;;;;;;;10.60;2.40;;;;;;;14.14;100.00;101485.91;5210543;28;20041;-82
2023/01/01 11:32:31;;;;;;;;;;;;;;;14.25;100.00;101490.91;5211214;28;20033;-82
2023/01/01 11:35:06;;;;;;;15.52;2.78;;;;;;;14.17;100.00;101475.59;5209488;28;20424;-81
2023/01/01 11:37:38;;;;;;;11.05;3.00;;;;;;;14.16;100.00;101479.31;5205098;28;20405;-82
2023/01/01 11:40:21;;;;;;;11.15;2.60;;;;;;;14.21;100.00;101484.19;5204330;28;20034;-82
2023/01/01 11:42:58;;;;;;;13.90;2.20;;;;;;;14.14;100.00;101483.19;5204634;28;20083;-82
2023/01/01 11:45:36;;;;;;;12.52;2.95;;;;;;;14.19;100.00;101495.16;5204602;28;20501;-82
2023/01/01 11:48:41;;;;;;;10.48;2.25;;;;;;;14.23;100.00;101501.88;5203371;28;20155;-82
2023/01/01 11:51:31;;;;;;;17.85;3.03;;;;;;;14.22;100.00;101502.06;5150946;28;20068;-82